Airfield :
LOGIN :

Register | Disclaimer

   EN    FR    IT 

 










Legend :    VFR   Marginal VFR   IFR   Intensive IFR   Very Intensive IFR
Visi :
Ceiling :
>= 8 km
>= 3000ft
5 to 8 km
1000 to 3000 ft
1500m to 5 km
500 to 1000 ft
800 to 1500m
200 to 500 ft
< 800m
< 200 ft
Symbols :   Thunderstorms  Fog  Heavy snow  Heavy precipitations  Wind > 20 kt
SIGMETs :     Misc.  Thunderstorms  Icing  Turbulence  Mountain Waves  Volcanic Ashes






- Airport Elevation : 93 ft
- IATA code : XRY


LEJR - Jerez

CURRENT METAR :
  • 291100Z 31006KT 240V350 CAVOK 13/07 Q1022

EXPIRED METARs :
  • 291030Z VRB05KT CAVOK 13/07 Q1023
  • 291000Z 26005KT 230V290 CAVOK 12/07 Q1022
  • 290930Z VRB01KT CAVOK 10/07 Q1022
  • 290900Z VRB01KT CAVOK 08/06 Q1022
  • 290830Z VRB02KT CAVOK 07/05 Q1022
  • 290800Z 00000KT CAVOK 06/04 Q1022
  • 290730Z VRB01KT CAVOK 04/03 Q1021
  • 290700Z VRB02KT CAVOK 03/03 Q1021
  • 290630Z 00000KT CAVOK 03/03 Q1021

TAF TAF LEJR
Valid from the 29 at 09:00 until the 01 at 09:00 UTC


290800Z 2909/0109 VRB02KT CAVOK TX21/2914Z TN03/0107Z
BECMG 2909/2911 31010KT



MET'MAP, your aeronautical weather chart ! - Copyright ORBIFLY December 2007 - Disclaimer

ORBIFLY MET'MAP TEAM :

Programming & Development : Alexandra Zaïnal
Original concept : Baudouin d'Aumeries
Technical & hardware support : Manuel Goepfert
Assistance : Marc-Olivier Méhu




SOURCES & CREDITS :

   NOAA